WetterOnline ( https://www.wetteronline.ch )

Wetter aktuell Offenburg

Aktuelles Wetter: Lahr (156m)

6-stündlich | Neueste Meldungen
Ortszeit Temperatur Wetter
Di, 02.06. 14:00 26.2° C leicht bewölkt
Di, 02.06. 8:00 14.8° C fast wolkenlos
Di, 02.06. 2:00 13.2° C wolkenlos
Mo, 01.06. 20:00 25.8° C wolkenlos
Mo, 01.06. 14:00 25.5° C wolkenlos
Mo, 01.06. 8:00 14.3° C wolkenlos
Mo, 01.06. 2:00 11.4° C wolkig
So, 31.05. 20:00 20.6° C wolkig
Ortszeit Temperatur Wetter
Di, 02.06. 19:00 27.1° C wolkenlos
Di, 02.06. 18:50 27.1° C wolkenlos
Di, 02.06. 18:40 27.3° C wolkenlos
Di, 02.06. 18:30 27.3° C leicht bewölkt
Di, 02.06. 18:20 27.3° C leicht bewölkt
Di, 02.06. 18:10 27.5° C wolkig
Di, 02.06. 18:00 27.5° C leicht bewölkt
Di, 02.06. 17:30 27.4° C wolkig
Di, 02.06. 17:00 27.7° C leicht bewölkt
Di, 02.06. 16:30 27.3° C wolkig
Di, 02.06. 16:00 27.6° C leicht bewölkt
Ortszeit Relative Feuchte Sichtweite
Di, 02.06. 14:00 34% 45 km
Di, 02.06. 8:00 66% 50 km
Di, 02.06. 2:00 69% 60 km
Mo, 01.06. 20:00 28% >70 km
Mo, 01.06. 14:00 34% 35 km
Mo, 01.06. 8:00 62% 45 km
Mo, 01.06. 2:00 69% 60 km
So, 31.05. 20:00 34% 65 km
Ortszeit Relative Feuchte Sichtweite
Di, 02.06. 19:00 34% 65 km
Di, 02.06. 18:50 34% -
Di, 02.06. 18:40 33% -
Di, 02.06. 18:30 33% 60 km
Di, 02.06. 18:20 33% -
Di, 02.06. 18:10 34% -
Di, 02.06. 18:00 31% >70 km
Di, 02.06. 17:30 30% 50 km
Di, 02.06. 17:00 32% 60 km
Di, 02.06. 16:30 31% 16 km
Di, 02.06. 16:00 32% 45 km
Ortszeit Niederschlagsmenge Niederschlagsart
Di, 02.06. 14:00 0.0 l/m2 in 6 Std. -
Di, 02.06. 8:00 0.0 l/m2 in 12 Std. -
Di, 02.06. 2:00 0.0 l/m2 in 6 Std. -
Mo, 01.06. 20:00 0.0 l/m2 in 12 Std. -
Mo, 01.06. 14:00 0.0 l/m2 in 6 Std. -
Mo, 01.06. 8:00 0.0 l/m2 in 12 Std. -
Mo, 01.06. 2:00 0.0 l/m2 in 6 Std. -
So, 31.05. 20:00 0.0 l/m2 in 12 Std. -
Ortszeit Niederschlagsmenge Niederschlagsart
Di, 02.06. 19:00 0.0 l/m2 in 1 Std. -
Di, 02.06. 18:50 keine Meldung -
Di, 02.06. 18:40 keine Meldung -
Di, 02.06. 18:30 0.0 l/m2 in 1 Std. -
Di, 02.06. 18:20 keine Meldung -
Di, 02.06. 18:10 keine Meldung -
Di, 02.06. 18:00 0.0 l/m2 in 1 Std. -
Di, 02.06. 17:30 0.0 l/m2 in 1 Std. -
Di, 02.06. 17:00 0.0 l/m2 in 1 Std. -
Di, 02.06. 16:30 0.0 l/m2 in 1 Std. -
Di, 02.06. 16:00 0.0 l/m2 in 1 Std. -
Ortszeit Stärke Spitze Richtung
km/h Bft. km/h Grad Sektor
Di, 02.06. 14:00 17 3 30 20° N
Di, 02.06. 8:00 6 1 9 40° NO
Di, 02.06. 2:00 4 1 22 300° NW
Mo, 01.06. 20:00 15 3 31 80° O
Mo, 01.06. 14:00 15 3 31 50° NO
Mo, 01.06. 8:00 11 2 14 30° NO
Mo, 01.06. 2:00 4 1 29 100° O
So, 31.05. 20:00 17 3 43 90° O
Ortszeit Stärke Spitze Richtung
km/h Bft. km/h Grad Sektor
Di, 02.06. 19:00 11 2 22 30° NO
Di, 02.06. 18:50 11 2 - 30° NO
Di, 02.06. 18:40 13 3 - 30° NO
Di, 02.06. 18:30 13 3 22 20° N
Di, 02.06. 18:20 13 3 - 20° N
Di, 02.06. 18:10 9 2 - 40° NO
Di, 02.06. 18:00 9 2 20 20° N
Di, 02.06. 17:30 11 2 20 20° N
Di, 02.06. 17:00 13 3 26 40° NO
Di, 02.06. 16:30 11 2 25 40° NO
Di, 02.06. 16:00 13 3 28 10° N
Ortszeit Untergrenze Bedeckung Gattung
total tief tief mittel hoch
Di, 02.06. 14:00 10500 m 8/8 0/8 - - -
Di, 02.06. 8:00 10500 m 2/8 0/8 - - -
Di, 02.06. 2:00 - 0/8 0/8 - - -
Mo, 01.06. 20:00 - 0/8 0/8 - - -
Mo, 01.06. 14:00 - 0/8 0/8 - - -
Mo, 01.06. 8:00 - 0/8 0/8 - - -
Mo, 01.06. 2:00 10500 m 8/8 0/8 - - -
So, 31.05. 20:00 6300 m 8/8 8/8 - - -
Ortszeit Bedeckungsgrad in Achtel und Wolkenuntergrenze
Di, 02.06. 19:00 keine Wolken
Di, 02.06. 18:50 keine Wolken
Di, 02.06. 18:40 keine Wolken
Di, 02.06. 18:30 3(8400m) 4(9000m)
Di, 02.06. 18:20 3(8400m) 4(9000m)
Di, 02.06. 18:10 7(8400m) 7(9000m) 8(10500m)
Di, 02.06. 18:00 7(8400m) 7(9000m) 8(10500m)
Di, 02.06. 17:30 3(8100m) 8(9000m) 8(10500m)
Di, 02.06. 17:00 4(8100m) 7(9000m) 8(9000m)
Di, 02.06. 16:30 6(9000m) 7(9000m) 7(10500m)
Di, 02.06. 16:00 7(9000m) 6(9000m)
Ortszeit Luftdruck NN (hPa) Tendenz (hPa in 3 Std.)
Di, 02.06. 14:00 1015 - 1,8
Di, 02.06. 8:00 1018 + 0,6
Di, 02.06. 2:00 1018 - 0,1
Mo, 01.06. 20:00 1016 - 0,6
Mo, 01.06. 14:00 1018 - 1,1
Mo, 01.06. 8:00 1019 + 0,3
Mo, 01.06. 2:00 1020 + 0,2
So, 31.05. 20:00 1018 + 0,5
Ortszeit Luftdruck NN (hPa) Tendenz (hPa in 3 Std.)
Di, 02.06. 19:00 1012 - 1,9
Di, 02.06. 18:50 1012 keine Meldung
Di, 02.06. 18:40 1012 keine Meldung
Di, 02.06. 18:30 1012 - 2,0
Di, 02.06. 18:20 1012 keine Meldung
Di, 02.06. 18:10 1012 keine Meldung
Di, 02.06. 18:00 1012 - 2,1
Di, 02.06. 17:30 1012 - 2,2
Di, 02.06. 17:00 1013 - 2,0
Di, 02.06. 16:30 1013 - 2,1
Di, 02.06. 16:00 1014 - 1,9
Ortszeit Schneehöhe (cm)
Di, 02.06. 14:00 -
Di, 02.06. 8:00 -
Di, 02.06. 2:00 -
Mo, 01.06. 20:00 -
Mo, 01.06. 14:00 -
Mo, 01.06. 8:00 -
Mo, 01.06. 2:00 -
So, 31.05. 20:00 -
Ortszeit Schneehöhe (cm)
Di, 02.06. 19:00 -
Di, 02.06. 18:50 -
Di, 02.06. 18:40 -
Di, 02.06. 18:30 -
Di, 02.06. 18:20 -
Di, 02.06. 18:10 -
Di, 02.06. 18:00 -
Di, 02.06. 17:30 -
Di, 02.06. 17:00 -
Di, 02.06. 16:30 -
Di, 02.06. 16:00 -
Link zu dieser Seite / Seite empfehlen

Das Wetter in ...